sensor_id;sensor_type;location;lat;lon;timestamp;pressure;altitude;pressure_sealevel;temperature;humidity
22311;BME280;11323;49.610;11.016;2023-02-25T00:03:59;96724.38;;;14.31;69.36
22311;BME280;11323;49.610;11.016;2023-02-25T00:08:59;96732.69;;;14.28;69.56
22311;BME280;11323;49.610;11.016;2023-02-25T00:14:00;96743.56;;;14.25;69.64
22311;BME280;11323;49.610;11.016;2023-02-25T00:19:00;96737.72;;;14.23;69.62
22311;BME280;11323;49.610;11.016;2023-02-25T00:24:03;96742.75;;;14.18;69.30
22311;BME280;11323;49.610;11.016;2023-02-25T00:29:03;96752.41;;;14.24;69.64
22311;BME280;11323;49.610;11.016;2023-02-25T00:34:05;96738.53;;;14.24;69.22
22311;BME280;11323;49.610;11.016;2023-02-25T00:39:06;96735.09;;;14.23;69.29
22311;BME280;11323;49.610;11.016;2023-02-25T00:44:08;96738.91;;;14.20;69.33
22311;BME280;11323;49.610;11.016;2023-02-25T00:49:09;96752.81;;;14.21;69.22
22311;BME280;11323;49.610;11.016;2023-02-25T00:54:09;96757.44;;;14.19;69.52
22311;BME280;11323;49.610;11.016;2023-02-25T00:59:09;96763.72;;;14.18;69.05
22311;BME280;11323;49.610;11.016;2023-02-25T01:04:10;96754.25;;;14.17;68.86
22311;BME280;11323;49.610;11.016;2023-02-25T01:09:11;96756.25;;;14.15;69.01
22311;BME280;11323;49.610;11.016;2023-02-25T01:14:15;96754.63;;;14.14;69.39
22311;BME280;11323;49.610;11.016;2023-02-25T01:19:21;96748.56;;;14.13;69.28
22311;BME280;11323;49.610;11.016;2023-02-25T01:24:25;96758.25;;;14.13;68.90
22311;BME280;11323;49.610;11.016;2023-02-25T01:29:34;96759.06;;;14.13;68.97
22311;BME280;11323;49.610;11.016;2023-02-25T01:34:36;96745.78;;;14.08;68.93
22311;BME280;11323;49.610;11.016;2023-02-25T01:39:38;96743.75;;;14.03;68.91
22311;BME280;11323;49.610;11.016;2023-02-25T01:50:19;96751.00;;;14.08;68.84
22311;BME280;11323;49.610;11.016;2023-02-25T01:55:23;96753.84;;;14.07;68.84
22311;BME280;11323;49.610;11.016;2023-02-25T02:00:24;96759.25;;;14.05;69.28
22311;BME280;11323;49.610;11.016;2023-02-25T02:05:39;96761.69;;;14.07;69.08
22311;BME280;11323;49.610;11.016;2023-02-25T02:10:43;96755.03;;;14.04;69.31
22311;BME280;11323;49.610;11.016;2023-02-25T02:15:56;96764.72;;;14.03;68.72
22311;BME280;11323;49.610;11.016;2023-02-25T02:21:07;96757.03;;;14.02;68.85
22311;BME280;11323;49.610;11.016;2023-02-25T02:37:15;96763.50;;;13.99;68.93
22311;BME280;11323;49.610;11.016;2023-02-25T02:42:50;96769.13;;;13.96;68.66
22311;BME280;11323;49.610;11.016;2023-02-25T02:47:56;96774.34;;;13.96;68.78
22311;BME280;11323;49.610;11.016;2023-02-25T02:53:03;96778.00;;;13.95;68.89
22311;BME280;11323;49.610;11.016;2023-02-25T03:03:31;96786.88;;;13.94;69.08
22311;BME280;11323;49.610;11.016;2023-02-25T03:08:43;96785.25;;;13.93;68.96
22311;BME280;11323;49.610;11.016;2023-02-25T03:13:45;96781.19;;;13.90;68.88
22311;BME280;11323;49.610;11.016;2023-02-25T03:19:07;96781.22;;;13.84;69.20
22311;BME280;11323;49.610;11.016;2023-02-25T03:24:16;96781.63;;;13.87;68.88
22311;BME280;11323;49.610;11.016;2023-02-25T03:29:23;96790.47;;;13.86;69.41
22311;BME280;11323;49.610;11.016;2023-02-25T03:34:30;96792.47;;;13.84;69.05
22311;BME280;11323;49.610;11.016;2023-02-25T03:39:36;96794.31;;;13.84;69.11
22311;BME280;11323;49.610;11.016;2023-02-25T03:44:44;96791.25;;;13.80;69.28
22311;BME280;11323;49.610;11.016;2023-02-25T03:49:51;96804.16;;;13.82;69.11
22311;BME280;11323;49.610;11.016;2023-02-25T03:54:54;96803.53;;;13.80;69.01
22311;BME280;11323;49.610;11.016;2023-02-25T03:59:56;96808.16;;;13.78;69.02
22311;BME280;11323;49.610;11.016;2023-02-25T04:04:57;96829.50;;;13.74;69.54
22311;BME280;11323;49.610;11.016;2023-02-25T04:09:58;96819.03;;;13.74;69.28
22311;BME280;11323;49.610;11.016;2023-02-25T04:14:59;96813.78;;;13.74;69.29
22311;BME280;11323;49.610;11.016;2023-02-25T04:20:00;96817.44;;;13.73;69.43
22311;BME280;11323;49.610;11.016;2023-02-25T04:25:00;96814.97;;;13.65;69.10
22311;BME280;11323;49.610;11.016;2023-02-25T04:30:00;96828.31;;;13.70;69.12
22311;BME280;11323;49.610;11.016;2023-02-25T04:35:01;96831.69;;;13.64;69.29
22311;BME280;11323;49.610;11.016;2023-02-25T04:40:03;96847.63;;;13.69;69.43
22311;BME280;11323;49.610;11.016;2023-02-25T04:45:10;96843.59;;;13.67;69.19
22311;BME280;11323;49.610;11.016;2023-02-25T04:50:11;96848.84;;;13.67;69.65
22311;BME280;11323;49.610;11.016;2023-02-25T04:55:11;96834.31;;;13.64;69.66
22311;BME280;11323;49.610;11.016;2023-02-25T05:00:18;96821.78;;;13.53;69.25
22311;BME280;11323;49.610;11.016;2023-02-25T05:05:18;96858.88;;;13.63;68.92
22311;BME280;11323;49.610;11.016;2023-02-25T05:10:19;96855.66;;;13.61;68.91
22311;BME280;11323;49.610;11.016;2023-02-25T05:15:19;96858.28;;;13.61;69.71
22311;BME280;11323;49.610;11.016;2023-02-25T05:20:19;96856.03;;;13.58;69.27
22311;BME280;11323;49.610;11.016;2023-02-25T05:25:20;96856.03;;;13.58;69.40
22311;BME280;11323;49.610;11.016;2023-02-25T05:30:20;96839.88;;;13.48;69.56
22311;BME280;11323;49.610;11.016;2023-02-25T05:35:21;96865.28;;;13.54;69.75
22311;BME280;11323;49.610;11.016;2023-02-25T05:40:21;96860.03;;;13.54;69.41
22311;BME280;11323;49.610;11.016;2023-02-25T05:45:21;96854.00;;;13.53;69.58
22311;BME280;11323;49.610;11.016;2023-02-25T05:50:22;96823.78;;;13.44;69.36
22311;BME280;11323;49.610;11.016;2023-02-25T05:55:22;96834.28;;;13.51;69.37
22311;BME280;11323;49.610;11.016;2023-02-25T06:00:23;96843.72;;;13.52;69.43
22311;BME280;11323;49.610;11.016;2023-02-25T06:05:23;96852.78;;;13.49;69.88
22311;BME280;11323;49.610;11.016;2023-02-25T06:10:25;96883.56;;;13.47;69.82
22311;BME280;11323;49.610;11.016;2023-02-25T06:15:25;96895.84;;;13.47;69.83
22311;BME280;11323;49.610;11.016;2023-02-25T06:20:25;96894.44;;;13.44;69.84
22311;BME280;11323;49.610;11.016;2023-02-25T06:25:27;96903.09;;;13.44;69.35
22311;BME280;11323;49.610;11.016;2023-02-25T06:30:29;96908.09;;;13.39;69.85
22311;BME280;11323;49.610;11.016;2023-02-25T06:35:29;96919.16;;;13.41;69.57
22311;BME280;11323;49.610;11.016;2023-02-25T06:40:30;96919.16;;;13.41;69.50
22311;BME280;11323;49.610;11.016;2023-02-25T06:45:32;96928.00;;;13.40;69.54
22311;BME280;11323;49.610;11.016;2023-02-25T06:50:33;96933.25;;;13.40;69.90
22311;BME280;11323;49.610;11.016;2023-02-25T06:55:34;96931.66;;;13.39;69.65
22311;BME280;11323;49.610;11.016;2023-02-25T07:00:34;96928.19;;;13.39;69.81
22311;BME280;11323;49.610;11.016;2023-02-25T07:05:36;96944.09;;;13.37;69.93
22311;BME280;11323;49.610;11.016;2023-02-25T07:10:37;96932.00;;;13.36;69.41
22311;BME280;11323;49.610;11.016;2023-02-25T07:15:39;96907.81;;;13.34;69.89
22311;BME280;11323;49.610;11.016;2023-02-25T07:20:40;96940.03;;;13.35;69.92
22311;BME280;11323;49.610;11.016;2023-02-25T07:25:40;96943.66;;;13.34;69.70
22311;BME280;11323;49.610;11.016;2023-02-25T07:30:40;96933.56;;;13.31;69.68
22311;BME280;11323;49.610;11.016;2023-02-25T07:35:41;96944.47;;;13.34;69.66
22311;BME280;11323;49.610;11.016;2023-02-25T07:40:41;96947.06;;;13.34;69.37
22311;BME280;11323;49.610;11.016;2023-02-25T07:45:41;96942.47;;;13.36;70.09
22311;BME280;11323;49.610;11.016;2023-02-25T07:50:42;96948.94;;;13.40;70.20
22311;BME280;11323;49.610;11.016;2023-02-25T07:55:43;96947.78;;;13.43;69.83
22311;BME280;11323;49.610;11.016;2023-02-25T08:00:44;96961.28;;;13.47;70.24
22311;BME280;11323;49.610;11.016;2023-02-25T08:05:49;96966.53;;;13.47;69.97
22311;BME280;11323;49.610;11.016;2023-02-25T08:10:50;96972.38;;;13.49;70.38
22311;BME280;11323;49.610;11.016;2023-02-25T08:15:51;96961.91;;;13.49;69.83
22311;BME280;11323;49.610;11.016;2023-02-25T08:20:51;96952.44;;;13.48;70.32
22311;BME280;11323;49.610;11.016;2023-02-25T08:25:57;96958.28;;;13.50;70.12
22311;BME280;11323;49.610;11.016;2023-02-25T08:30:58;96960.09;;;13.49;70.35
22311;BME280;11323;49.610;11.016;2023-02-25T08:36:12;96964.38;;;13.57;70.54
22311;BME280;11323;49.610;11.016;2023-02-25T08:41:12;96968.84;;;13.70;69.99
22311;BME280;11323;49.610;11.016;2023-02-25T08:46:12;96955.63;;;13.78;70.11
22311;BME280;11323;49.610;11.016;2023-02-25T08:51:13;96951.81;;;13.81;70.28
22311;BME280;11323;49.610;11.016;2023-02-25T08:56:15;96953.63;;;13.87;70.24
22311;BME280;11323;49.610;11.016;2023-02-25T09:01:16;96958.50;;;13.90;69.72
22311;BME280;11323;49.610;11.016;2023-02-25T09:06:25;96960.13;;;13.91;70.11
22311;BME280;11323;49.610;11.016;2023-02-25T09:11:27;96960.13;;;13.91;70.03
22311;BME280;11323;49.610;11.016;2023-02-25T09:16:28;96973.00;;;13.93;70.03
22311;BME280;11323;49.610;11.016;2023-02-25T09:21:29;96974.63;;;13.94;69.87
22311;BME280;11323;49.610;11.016;2023-02-25T09:26:29;96972.22;;;13.92;69.91
22311;BME280;11323;49.610;11.016;2023-02-25T09:31:30;96973.84;;;13.93;70.19
22311;BME280;11323;49.610;11.016;2023-02-25T09:36:32;96972.66;;;14.02;70.72
22311;BME280;11323;49.610;11.016;2023-02-25T09:41:51;96972.66;;;14.02;70.81
22311;BME280;11323;49.610;11.016;2023-02-25T09:46:56;96972.31;;;14.12;70.90
22311;BME280;11323;49.610;11.016;2023-02-25T09:57:34;96973.94;;;14.20;71.33
22311;BME280;11323;49.610;11.016;2023-02-25T10:02:40;96969.91;;;14.24;71.57
22311;BME280;11323;49.610;11.016;2023-02-25T10:08:05;96965.91;;;14.28;71.76
22311;BME280;11323;49.610;11.016;2023-02-25T10:29:26;96955.81;;;14.25;70.05
22311;BME280;11323;49.610;11.016;2023-02-25T10:34:29;96958.66;;;14.37;70.26
22311;BME280;11323;49.610;11.016;2023-02-25T10:39:30;96955.25;;;14.43;70.47
22311;BME280;11323;49.610;11.016;2023-02-25T10:44:30;96954.44;;;14.43;70.79
22311;BME280;11323;49.610;11.016;2023-02-25T10:49:31;96938.72;;;14.43;70.66
22311;BME280;11323;49.610;11.016;2023-02-25T10:54:50;96932.47;;;14.44;70.57
22311;BME280;11323;49.610;11.016;2023-02-25T11:00:04;96932.69;;;14.49;71.35
22311;BME280;11323;49.610;11.016;2023-02-25T11:05:05;96931.88;;;14.55;71.50
22311;BME280;11323;49.610;11.016;2023-02-25T11:10:16;96926.84;;;14.60;71.37
22311;BME280;11323;49.610;11.016;2023-02-25T11:15:36;96918.59;;;14.63;71.36
22311;BME280;11323;49.610;11.016;2023-02-25T11:20:37;96916.41;;;14.67;71.36
22311;BME280;11323;49.610;11.016;2023-02-25T11:25:39;96926.69;;;14.69;71.36
22311;BME280;11323;49.610;11.016;2023-02-25T11:30:42;96941.41;;;14.70;71.24
22311;BME280;11323;49.610;11.016;2023-02-25T11:35:44;96953.53;;;14.71;71.21
22311;BME280;11323;49.610;11.016;2023-02-25T11:40:44;96931.28;;;14.66;71.09
22311;BME280;11323;49.610;11.016;2023-02-25T11:46:06;96930.72;;;14.78;71.08
22311;BME280;11323;49.610;11.016;2023-02-25T11:56:39;96901.69;;;14.79;70.75
22311;BME280;11323;49.610;11.016;2023-02-25T12:07:26;96895.03;;;14.90;71.44
22311;BME280;11323;49.610;11.016;2023-02-25T12:28:50;96920.44;;;15.03;71.30
22311;BME280;11323;49.610;11.016;2023-02-25T12:34:11;96918.03;;;15.02;71.39
22311;BME280;11323;49.610;11.016;2023-02-25T12:45:02;96922.03;;;14.97;70.68
22311;BME280;11323;49.610;11.016;2023-02-25T12:50:36;96911.75;;;14.89;70.32
22311;BME280;11323;49.610;11.016;2023-02-25T12:55:55;96909.13;;;14.82;70.48
22311;BME280;11323;49.610;11.016;2023-02-25T13:01:39;96933.97;;;14.93;69.94
22311;BME280;11323;49.610;11.016;2023-02-25T13:12:12;96930.13;;;14.89;70.06
22311;BME280;11323;49.610;11.016;2023-02-25T13:17:31;96934.97;;;14.99;70.63
22311;BME280;11323;49.610;11.016;2023-02-25T13:23:05;96947.88;;;15.01;70.32
22311;BME280;11323;49.610;11.016;2023-02-25T13:39:41;96955.56;;;14.89;69.86
22311;BME280;11323;49.610;11.016;2023-02-25T13:50:27;96970.28;;;14.83;69.53
22311;BME280;11323;49.610;11.016;2023-02-25T13:55:46;96973.09;;;14.81;69.51
22311;BME280;11323;49.610;11.016;2023-02-25T14:23:15;96961.41;;;14.71;69.23
22311;BME280;11323;49.610;11.016;2023-02-25T14:33:42;96972.91;;;14.76;69.03
22311;BME280;11323;49.610;11.016;2023-02-25T14:44:14;96982.94;;;14.59;69.31
22311;BME280;11323;49.610;11.016;2023-02-25T14:49:24;97006.72;;;14.64;69.40
22311;BME280;11323;49.610;11.016;2023-02-25T14:54:55;97002.28;;;14.58;69.42
22311;BME280;11323;49.610;11.016;2023-02-25T15:05:46;97020.03;;;14.56;69.32
22311;BME280;11323;49.610;11.016;2023-02-25T15:10:59;97024.25;;;14.57;69.35
22311;BME280;11323;49.610;11.016;2023-02-25T15:16:30;97030.75;;;14.61;69.40
22311;BME280;11323;49.610;11.016;2023-02-25T15:21:41;97027.53;;;14.66;69.32
22311;BME280;11323;49.610;11.016;2023-02-25T15:26:47;97032.59;;;14.67;69.21
22311;BME280;11323;49.610;11.016;2023-02-25T15:42:55;97049.16;;;14.68;69.11
22311;BME280;11323;49.610;11.016;2023-02-25T15:53:36;97072.91;;;14.66;69.13
22311;BME280;11323;49.610;11.016;2023-02-25T15:58:50;97074.31;;;14.62;69.11
22311;BME280;11323;49.610;11.016;2023-02-25T16:03:51;97086.19;;;14.58;69.21
22311;BME280;11323;49.610;11.016;2023-02-25T16:08:55;97089.81;;;14.57;69.14
22311;BME280;11323;49.610;11.016;2023-02-25T16:14:21;97112.00;;;14.55;69.20
22311;BME280;11323;49.610;11.016;2023-02-25T16:19:26;97109.53;;;14.53;68.91
22311;BME280;11323;49.610;11.016;2023-02-25T16:24:28;97115.38;;;14.48;69.14
22311;BME280;11323;49.610;11.016;2023-02-25T16:29:41;97118.81;;;14.49;68.87
22311;BME280;11323;49.610;11.016;2023-02-25T16:35:00;97122.03;;;14.44;68.83
22311;BME280;11323;49.610;11.016;2023-02-25T16:40:04;97130.13;;;14.56;69.10
22311;BME280;11323;49.610;11.016;2023-02-25T16:45:06;97142.84;;;14.52;68.67
22311;BME280;11323;49.610;11.016;2023-02-25T16:50:13;97144.66;;;14.52;68.75
22311;BME280;11323;49.610;11.016;2023-02-25T16:55:18;97161.56;;;14.49;68.99
22311;BME280;11323;49.610;11.016;2023-02-25T17:00:20;97178.91;;;14.50;69.33
22311;BME280;11323;49.610;11.016;2023-02-25T17:05:23;97184.53;;;14.47;69.31
22311;BME280;11323;49.610;11.016;2023-02-25T17:10:57;97196.22;;;14.45;68.83
22311;BME280;11323;49.610;11.016;2023-02-25T17:15:58;97198.44;;;14.41;69.03
22311;BME280;11323;49.610;11.016;2023-02-25T17:21:33;97214.78;;;14.43;68.94
22311;BME280;11323;49.610;11.016;2023-02-25T17:26:39;97206.50;;;14.40;68.83
22311;BME280;11323;49.610;11.016;2023-02-25T17:36:48;97226.47;;;14.47;68.59
22311;BME280;11323;49.610;11.016;2023-02-25T17:41:49;97239.41;;;14.49;68.63
22311;BME280;11323;49.610;11.016;2023-02-25T17:46:49;97239.00;;;14.45;68.98
22311;BME280;11323;49.610;11.016;2023-02-25T17:51:53;97255.53;;;14.46;69.17
22311;BME280;11323;49.610;11.016;2023-02-25T17:57:17;97259.50;;;14.42;68.82
22311;BME280;11323;49.610;11.016;2023-02-25T18:02:33;97267.59;;;14.40;69.04
22311;BME280;11323;49.610;11.016;2023-02-25T18:07:33;97258.47;;;14.36;68.91
22311;BME280;11323;49.610;11.016;2023-02-25T18:12:36;97267.09;;;14.30;68.92
22311;BME280;11323;49.610;11.016;2023-02-25T18:17:39;97279.25;;;14.38;69.00
22311;BME280;11323;49.610;11.016;2023-02-25T18:22:45;97292.78;;;14.41;68.65
22311;BME280;11323;49.610;11.016;2023-02-25T18:27:53;97299.66;;;14.42;68.48
22311;BME280;11323;49.610;11.016;2023-02-25T18:32:54;97307.47;;;14.35;68.85
22311;BME280;11323;49.610;11.016;2023-02-25T18:37:57;97303.59;;;14.31;68.58
22311;BME280;11323;49.610;11.016;2023-02-25T18:42:58;97305.47;;;14.38;68.65
22311;BME280;11323;49.610;11.016;2023-02-25T18:47:59;97306.69;;;14.42;68.74
22311;BME280;11323;49.610;11.016;2023-02-25T18:53:00;97313.00;;;14.47;68.75
22311;BME280;11323;49.610;11.016;2023-02-25T18:58:00;97323.31;;;14.49;68.61
22311;BME280;11323;49.610;11.016;2023-02-25T19:03:03;97324.94;;;14.50;68.79
22311;BME280;11323;49.610;11.016;2023-02-25T19:08:16;97328.56;;;14.49;68.88
22311;BME280;11323;49.610;11.016;2023-02-25T19:13:34;97328.56;;;14.49;69.01
22311;BME280;11323;49.610;11.016;2023-02-25T19:18:35;97335.16;;;14.45;68.76
22311;BME280;11323;49.610;11.016;2023-02-25T19:23:36;97346.66;;;14.44;68.84
22311;BME280;11323;49.610;11.016;2023-02-25T19:28:37;97345.03;;;14.43;68.70
22311;BME280;11323;49.610;11.016;2023-02-25T19:33:37;97351.25;;;14.42;68.71
22311;BME280;11323;49.610;11.016;2023-02-25T19:38:38;97354.28;;;14.39;68.97
22311;BME280;11323;49.610;11.016;2023-02-25T19:43:38;97360.16;;;14.41;68.43
22311;BME280;11323;49.610;11.016;2023-02-25T19:48:39;97376.47;;;14.43;68.65
22311;BME280;11323;49.610;11.016;2023-02-25T19:53:39;97376.41;;;14.36;68.54
22311;BME280;11323;49.610;11.016;2023-02-25T19:58:40;97388.94;;;14.34;68.64
22311;BME280;11323;49.610;11.016;2023-02-25T20:03:40;97399.97;;;14.29;68.20
22311;BME280;11323;49.610;11.016;2023-02-25T20:08:40;97409.81;;;14.27;68.49
22311;BME280;11323;49.610;11.016;2023-02-25T20:13:41;97402.53;;;14.23;68.36
22311;BME280;11323;49.610;11.016;2023-02-25T20:18:41;97411.81;;;14.25;68.46
22311;BME280;11323;49.610;11.016;2023-02-25T20:23:42;97429.16;;;14.26;68.46
22311;BME280;11323;49.610;11.016;2023-02-25T20:28:42;97429.53;;;14.23;68.16
22311;BME280;11323;49.610;11.016;2023-02-25T20:33:43;97442.00;;;14.21;68.27
22311;BME280;11323;49.610;11.016;2023-02-25T20:43:57;97454.09;;;14.22;68.13
22311;BME280;11323;49.610;11.016;2023-02-25T20:48:59;97461.53;;;14.18;68.15
22311;BME280;11323;49.610;11.016;2023-02-25T20:54:00;97477.63;;;14.15;67.99
22311;BME280;11323;49.610;11.016;2023-02-25T20:59:03;97470.59;;;14.16;67.78
22311;BME280;11323;49.610;11.016;2023-02-25T21:04:03;97481.41;;;14.13;67.89
22311;BME280;11323;49.610;11.016;2023-02-25T21:09:05;97488.28;;;14.14;68.39
22311;BME280;11323;49.610;11.016;2023-02-25T21:14:06;97495.50;;;14.12;68.73
22311;BME280;11323;49.610;11.016;2023-02-25T21:19:09;97498.78;;;14.14;68.95
22311;BME280;11323;49.610;11.016;2023-02-25T21:24:09;97494.06;;;14.09;68.89
22311;BME280;11323;49.610;11.016;2023-02-25T21:29:13;97497.94;;;14.13;68.53
22311;BME280;11323;49.610;11.016;2023-02-25T21:34:13;97500.03;;;14.18;69.01
22311;BME280;11323;49.610;11.016;2023-02-25T21:39:14;97497.59;;;14.16;68.67
22311;BME280;11323;49.610;11.016;2023-02-25T21:44:14;97505.28;;;14.18;69.15
22311;BME280;11323;49.610;11.016;2023-02-25T21:49:15;97508.50;;;14.20;67.46
22311;BME280;11323;49.610;11.016;2023-02-25T21:54:15;97507.63;;;14.13;66.64
22311;BME280;11323;49.610;11.016;2023-02-25T21:59:16;97512.59;;;14.08;66.74
22311;BME280;11323;49.610;11.016;2023-02-25T22:04:16;97515.94;;;14.01;67.14
22311;BME280;11323;49.610;11.016;2023-02-25T22:09:17;97509.81;;;13.94;67.01
22311;BME280;11323;49.610;11.016;2023-02-25T22:14:19;97508.19;;;13.93;66.76
22311;BME280;11323;49.610;11.016;2023-02-25T22:19:19;97521.00;;;13.88;66.78
22311;BME280;11323;49.610;11.016;2023-02-25T22:24:20;97509.63;;;13.81;67.24
22311;BME280;11323;49.610;11.016;2023-02-25T22:29:20;97514.69;;;13.82;67.35
22311;BME280;11323;49.610;11.016;2023-02-25T22:34:21;97515.22;;;13.78;67.61
22311;BME280;11323;49.610;11.016;2023-02-25T22:39:21;97513.97;;;13.73;67.70
22311;BME280;11323;49.610;11.016;2023-02-25T22:44:21;97512.69;;;13.69;67.48
22311;BME280;11323;49.610;11.016;2023-02-25T22:49:22;97517.63;;;13.64;67.67
22311;BME280;11323;49.610;11.016;2023-02-25T22:54:22;97533.00;;;13.67;67.56
22311;BME280;11323;49.610;11.016;2023-02-25T22:59:23;97527.50;;;13.62;67.66
22311;BME280;11323;49.610;11.016;2023-02-25T23:04:23;97524.25;;;13.60;67.79
22311;BME280;11323;49.610;11.016;2023-02-25T23:09:24;97533.25;;;13.57;67.56
22311;BME280;11323;49.610;11.016;2023-02-25T23:14:24;97538.31;;;13.59;67.24
22311;BME280;11323;49.610;11.016;2023-02-25T23:19:27;97541.28;;;13.56;67.51
22311;BME280;11323;49.610;11.016;2023-02-25T23:24:27;97544.91;;;13.55;68.12
22311;BME280;11323;49.610;11.016;2023-02-25T23:29:27;97551.13;;;13.54;67.52
22311;BME280;11323;49.610;11.016;2023-02-25T23:34:28;97551.94;;;13.54;67.88
22311;BME280;11323;49.610;11.016;2023-02-25T23:39:28;97552.31;;;13.51;67.81
22311;BME280;11323;49.610;11.016;2023-02-25T23:44:29;97558.72;;;13.49;67.63
22311;BME280;11323;49.610;11.016;2023-02-25T23:49:29;97560.34;;;13.50;67.92
22311;BME280;11323;49.610;11.016;2023-02-25T23:54:29;97560.50;;;13.48;67.76
22311;BME280;11323;49.610;11.016;2023-02-25T23:59:30;97561.31;;;13.49;67.54
